Time;durP1;ratioP1;P1;durP2;ratioP2;P2;SDS_P1;SDS_P2;PMS_P1;PMS_P2;Temp;Humidity;BMP_temperature;BMP_pressure;BME280_temperature;BME280_humidity;BME280_pressure;Samples;Min_cycle;Max_cycle;Signal;HPM_P1;HPM_P2
2023/09/20 00:02:22;;;;;;;10.50;2.22;;;;;;;16.50;100.00;100730.47;5035697;28;20035;-66
2023/09/20 00:04:47;;;;;;;5.93;2.22;;;;;;;16.49;100.00;100726.13;5046406;28;20029;-67
2023/09/20 00:07:13;;;;;;;7.43;2.33;;;;;;;16.48;100.00;100721.75;5045177;28;20145;-67
2023/09/20 00:09:38;;;;;;;9.18;2.60;;;;;;;16.47;100.00;100722.63;5048044;28;20045;-66
2023/09/20 00:12:04;;;;;;;5.60;1.90;;;;;;;16.45;100.00;100729.56;5050186;28;20024;-66
2023/09/20 00:14:29;;;;;;;6.10;1.95;;;;;;;16.45;100.00;100726.97;5049610;28;20033;-67
2023/09/20 00:16:54;;;;;;;5.07;1.85;;;;;;;16.42;100.00;100719.13;5050044;28;20021;-67
2023/09/20 00:19:20;;;;;;;4.45;1.95;;;;;;;16.40;100.00;100721.72;5049137;28;20070;-67
2023/09/20 00:21:46;;;;;;;7.65;2.40;;;;;;;16.37;100.00;100720.81;5049893;28;20103;-66
2023/09/20 00:24:11;;;;;;;6.90;2.00;;;;;;;16.32;100.00;100724.28;5050038;28;20104;-67
2023/09/20 00:26:37;;;;;;;5.97;1.98;;;;;;;16.33;100.00;100723.41;5050074;28;20085;-66
2023/09/20 00:29:05;;;;;;;5.80;2.17;;;;;;;16.29;100.00;100711.19;5049526;28;20323;-66
2023/09/20 00:31:32;;;;;;;7.00;1.92;;;;;;;16.29;100.00;100721.66;5050235;28;20036;-66
2023/09/20 00:33:57;;;;;;;5.72;2.25;;;;;;;16.26;100.00;100719.00;5049047;28;20044;-66
2023/09/20 00:36:23;;;;;;;3.83;1.60;;;;;;;16.23;100.00;100713.75;5049965;28;20377;-66
2023/09/20 00:38:48;;;;;;;6.28;2.10;;;;;;;16.24;100.00;100720.75;5034929;28;20029;-66
2023/09/20 00:41:14;;;;;;;3.85;2.05;;;;;;;16.23;100.00;100718.97;5030328;28;20078;-67
2023/09/20 00:43:39;;;;;;;3.92;1.88;;;;;;;16.22;100.00;100722.47;5044319;28;20041;-67
2023/09/20 00:46:05;;;;;;;7.82;2.20;;;;;;;16.21;100.00;100712.88;5044352;28;20032;-66
2023/09/20 00:48:31;;;;;;;5.53;1.70;;;;;;;16.18;100.00;100708.50;5030489;28;20029;-67
2023/09/20 00:50:57;;;;;;;4.05;1.65;;;;;;;16.17;100.00;100711.13;5030917;28;20294;-66
2023/09/20 00:53:23;;;;;;;3.75;1.92;;;;;;;16.17;100.00;100703.28;5030701;28;20462;-67
2023/09/20 00:55:49;;;;;;;6.60;2.17;;;;;;;16.17;100.00;100700.66;5030331;28;20022;-66
2023/09/20 00:58:15;;;;;;;5.28;2.00;;;;;;;16.11;100.00;100705.84;5029839;28;20036;-67
2023/09/20 01:00:43;;;;;;;6.47;2.30;;;;;;;16.08;100.00;100704.94;5029833;28;20029;-66
2023/09/20 01:03:09;;;;;;;4.53;1.88;;;;;;;16.08;100.00;100710.16;5029723;28;20033;-66
2023/09/20 01:05:36;;;;;;;7.68;2.38;;;;;;;16.07;100.00;100708.44;5030711;28;20524;-66
2023/09/20 01:08:03;;;;;;;5.15;1.80;;;;;;;16.05;100.00;100715.38;5042499;28;20052;-66
2023/09/20 01:10:31;;;;;;;4.57;2.00;;;;;;;16.05;100.00;100715.38;5030278;28;20313;-66
2023/09/20 01:12:57;;;;;;;5.05;1.55;;;;;;;16.03;100.00;100711.88;5045996;28;20043;-67
2023/09/20 01:15:25;;;;;;;3.75;1.88;;;;;;;16.01;100.00;100713.59;5049780;28;20032;-66
2023/09/20 01:17:56;;;;;;;5.22;1.98;;;;;;;15.99;100.00;100709.22;5048505;28;20044;-66
2023/09/20 01:20:24;;;;;;;3.83;1.80;;;;;;;15.96;100.00;100705.72;5048365;28;20032;-66
2023/09/20 01:22:51;;;;;;;4.85;1.70;;;;;;;15.95;100.00;100703.09;5049131;28;20552;-66
2023/09/20 01:25:24;;;;;;;5.78;2.05;;;;;;;15.94;100.00;100701.31;5049461;28;20048;-66
2023/09/20 01:27:57;;;;;;;6.38;2.00;;;;;;;15.94;100.00;100704.81;5048851;28;20029;-67
2023/09/20 01:30:27;;;;;;;3.95;1.55;;;;;;;15.92;100.00;100703.91;5036003;28;20028;-66
2023/09/20 01:32:54;;;;;;;6.53;2.10;;;;;;;15.90;100.00;100699.56;5023883;28;20039;-67
2023/09/20 01:35:21;;;;;;;5.03;1.88;;;;;;;15.89;100.00;100687.34;5048769;28;20350;-67
2023/09/20 01:37:46;;;;;;;5.22;1.95;;;;;;;15.88;100.00;100693.44;5040531;28;20465;-67
2023/09/20 01:40:15;;;;;;;4.05;1.60;;;;;;;15.87;100.00;100697.78;5029052;28;20049;-67
2023/09/20 01:42:42;;;;;;;4.10;1.60;;;;;;;15.85;100.00;100689.06;5029110;28;20037;-66
2023/09/20 01:45:10;;;;;;;5.40;2.40;;;;;;;15.83;100.00;100691.66;5028962;28;20112;-67
2023/09/20 01:47:37;;;;;;;5.97;1.92;;;;;;;15.83;100.00;100682.97;5029414;28;20029;-67
2023/09/20 01:50:04;;;;;;;5.32;2.08;;;;;;;15.80;100.00;100682.94;5043361;28;20032;-66
2023/09/20 01:52:30;;;;;;;7.38;2.42;;;;;;;15.80;100.00;100675.09;5048194;28;20086;-66
2023/09/20 01:54:57;;;;;;;6.15;1.90;;;;;;;15.79;100.00;100674.25;5047610;28;20052;-66
2023/09/20 01:57:23;;;;;;;5.28;2.20;;;;;;;15.78;100.00;100664.63;5048165;28;20442;-66
2023/09/20 01:59:48;;;;;;;6.85;2.22;;;;;;;15.79;100.00;100666.41;5047284;28;20025;-65
2023/09/20 02:02:13;;;;;;;5.10;2.10;;;;;;;15.82;100.00;100669.03;5048188;28;20024;-67
2023/09/20 02:04:39;;;;;;;5.22;1.90;;;;;;;15.83;100.00;100662.94;5046432;28;20358;-66
2023/09/20 02:07:06;;;;;;;6.22;2.08;;;;;;;15.86;100.00;100662.09;5047697;28;20053;-67
2023/09/20 02:09:31;;;;;;;5.90;1.90;;;;;;;15.87;100.00;100658.59;5047217;28;20036;-66
2023/09/20 02:11:57;;;;;;;4.60;1.67;;;;;;;15.89;100.00;100650.78;5047817;28;20469;-67
2023/09/20 02:14:22;;;;;;;3.17;1.88;;;;;;;15.91;100.00;100652.53;5046370;28;20029;-67
2023/09/20 02:16:47;;;;;;;5.18;2.08;;;;;;;15.93;100.00;100642.09;5047368;28;20032;-67
2023/09/20 02:19:13;;;;;;;7.03;2.15;;;;;;;15.96;100.00;100648.22;5045694;28;20385;-66
2023/09/20 02:21:38;;;;;;;4.15;1.88;;;;;;;16.01;100.00;100650.03;5047609;28;20028;-65
2023/09/20 02:24:05;;;;;;;4.82;2.10;;;;;;;16.05;100.00;100639.59;5045848;28;20342;-67
2023/09/20 02:26:30;;;;;;;8.52;2.03;;;;;;;16.08;100.00;100642.22;5047061;28;20079;-67
2023/09/20 02:28:56;;;;;;;4.50;1.92;;;;;;;16.12;100.00;100642.25;5046479;28;20026;-67
2023/09/20 02:31:21;;;;;;;3.38;1.90;;;;;;;16.16;100.00;100633.53;5047354;28;20033;-66
2023/09/20 02:33:47;;;;;;;7.97;2.08;;;;;;;16.17;100.00;100636.16;5033865;28;20022;-66
2023/09/20 02:36:12;;;;;;;2.88;1.85;;;;;;;16.20;100.00;100632.72;5046520;28;20021;-67
2023/09/20 02:38:38;;;;;;;2.88;1.65;;;;;;;16.23;100.00;100634.44;5033750;28;20075;-66
2023/09/20 02:41:03;;;;;;;5.43;1.77;;;;;;;16.26;100.00;100637.94;5046900;28;20078;-66
2023/09/20 02:43:29;;;;;;;5.28;2.05;;;;;;;16.28;100.00;100628.38;5033789;28;20052;-67
2023/09/20 02:45:59;;;;;;;4.88;1.83;;;;;;;16.29;100.00;100635.38;5028767;28;20100;-66
2023/09/20 02:48:24;;;;;;;6.70;2.30;;;;;;;16.28;100.00;100631.00;5027597;28;20507;-66
2023/09/20 02:50:50;;;;;;;6.07;1.80;;;;;;;16.29;100.00;100627.53;5028159;28;20029;-66
2023/09/20 02:53:15;;;;;;;9.70;2.40;;;;;;;16.28;100.00;100611.84;5028454;28;20018;-67
2023/09/20 02:55:41;;;;;;;6.72;2.63;;;;;;;16.29;100.00;100617.06;5027999;28;20028;-67
2023/09/20 02:58:07;;;;;;;3.63;2.13;;;;;;;16.30;100.00;100610.09;5028697;28;20493;-67
2023/09/20 03:00:32;;;;;;;7.30;2.58;;;;;;;16.26;100.00;100614.44;5027892;28;20021;-66
2023/09/20 03:03:02;;;;;;;7.10;2.45;;;;;;;16.25;100.00;100617.91;5029164;28;20029;-68
2023/09/20 03:05:29;;;;;;;6.85;2.38;;;;;;;16.26;100.00;100609.19;5028347;28;20435;-67
2023/09/20 03:07:55;;;;;;;6.30;2.85;;;;;;;16.22;100.00;100617.91;5028750;28;20064;-66
2023/09/20 03:10:22;;;;;;;4.78;2.17;;;;;;;16.21;100.00;100613.53;5028781;28;20096;-67
2023/09/20 03:12:53;;;;;;;6.13;2.20;;;;;;;16.19;100.00;100615.28;5028801;28;20026;-65
2023/09/20 03:15:22;;;;;;;7.53;2.25;;;;;;;16.19;100.00;100610.06;5027794;28;20087;-67
2023/09/20 03:17:53;;;;;;;4.57;1.98;;;;;;;16.18;100.00;100603.06;5028458;28;20026;-66
2023/09/20 03:20:22;;;;;;;5.15;1.95;;;;;;;16.15;100.00;100596.09;5027948;28;20033;-66
2023/09/20 03:22:51;;;;;;;3.80;1.98;;;;;;;16.15;100.00;100603.06;5027602;28;20025;-65
2023/09/20 03:25:19;;;;;;;7.00;2.63;;;;;;;16.11;100.00;100581.25;5027882;28;20029;-66
2023/09/20 03:27:45;;;;;;;9.63;2.78;;;;;;;16.08;100.00;100595.19;5028103;28;20041;-66
2023/09/20 03:30:13;;;;;;;6.20;2.30;;;;;;;16.03;100.00;100586.44;5028125;28;20040;-66
2023/09/20 03:32:44;;;;;;;5.65;2.45;;;;;;;16.02;100.00;100589.06;5028225;28;20128;-66
2023/09/20 03:35:10;;;;;;;4.50;2.10;;;;;;;16.00;100.00;100586.44;5026946;28;20113;-66
2023/09/20 03:37:40;;;;;;;4.50;1.90;;;;;;;15.95;100.00;100585.50;5027887;28;20033;-66
2023/09/20 03:40:10;;;;;;;6.53;2.08;;;;;;;15.92;100.00;100599.41;5027964;28;20033;-67
2023/09/20 03:42:36;;;;;;;4.95;2.10;;;;;;;15.84;100.00;100596.78;5047081;28;20057;-65
2023/09/20 03:45:01;;;;;;;5.13;2.28;;;;;;;15.79;100.00;100593.25;5050515;28;20072;-66
2023/09/20 03:47:28;;;;;;;3.97;2.10;;;;;;;15.76;100.00;100603.66;5050497;28;20045;-67
2023/09/20 03:49:53;;;;;;;7.82;1.85;;;;;;;15.70;100.00;100593.19;5049224;28;20040;-66
2023/09/20 03:52:19;;;;;;;5.85;2.70;;;;;;;15.67;100.00;100590.56;5040985;28;20013;-67
2023/09/20 03:54:49;;;;;;;5.55;2.47;;;;;;;15.61;100.00;100599.22;5044001;28;20385;-66
2023/09/20 03:57:15;;;;;;;3.87;2.00;;;;;;;15.58;100.00;100610.50;5025708;28;20025;-66
2023/09/20 03:59:41;;;;;;;4.10;2.22;;;;;;;15.53;100.00;100604.38;5049515;28;20393;-66
2023/09/20 04:02:11;;;;;;;5.82;2.33;;;;;;;15.47;100.00;100597.38;5050339;28;20013;-67
2023/09/20 04:04:37;;;;;;;7.28;2.33;;;;;;;15.41;100.00;100591.22;5049700;28;20090;-66
2023/09/20 04:07:04;;;;;;;5.90;2.17;;;;;;;15.36;100.00;100592.06;5050141;28;20671;-67
2023/09/20 04:09:32;;;;;;;7.03;2.38;;;;;;;15.34;100.00;100593.78;5048561;28;20162;-67
2023/09/20 04:11:57;;;;;;;5.22;2.70;;;;;;;15.33;100.00;100589.44;5042463;28;20033;-66
2023/09/20 04:14:23;;;;;;;8.52;2.13;;;;;;;15.30;100.00;100597.25;5043595;28;20104;-66
2023/09/20 04:16:49;;;;;;;6.05;2.90;;;;;;;15.30;100.00;100588.53;5049077;28;20079;-66
2023/09/20 04:19:14;;;;;;;10.02;2.75;;;;;;;15.30;100.00;100589.41;5048459;28;20067;-67
2023/09/20 04:21:40;;;;;;;7.13;3.35;;;;;;;15.28;100.00;100580.69;5049945;28;20048;-66
2023/09/20 04:24:06;;;;;;;9.23;2.47;;;;;;;15.29;100.00;100582.44;5049174;28;20198;-66
2023/09/20 04:26:32;;;;;;;6.22;2.80;;;;;;;15.24;100.00;100577.19;5049185;28;20025;-67
2023/09/20 04:28:58;;;;;;;5.75;1.88;;;;;;;15.20;100.00;100571.94;5048446;28;20025;-66
2023/09/20 04:31:23;;;;;;;7.70;2.10;;;;;;;15.18;100.00;100576.25;5049449;28;20536;-66
2023/09/20 04:33:48;;;;;;;6.57;2.58;;;;;;;15.17;100.00;100561.44;5047752;28;20029;-66
2023/09/20 04:36:14;;;;;;;9.23;2.75;;;;;;;15.17;100.00;100556.22;5049380;28;20674;-67
2023/09/20 04:38:41;;;;;;;5.50;2.42;;;;;;;15.15;100.00;100560.59;5035999;28;20025;-67
2023/09/20 04:41:11;;;;;;;6.45;2.78;;;;;;;15.15;100.00;100560.59;5050134;28;20033;-66
2023/09/20 04:43:37;;;;;;;5.55;2.92;;;;;;;15.12;100.00;100554.47;5036681;28;20029;-66
2023/09/20 04:46:03;;;;;;;4.50;2.50;;;;;;;15.11;100.00;100549.25;5042425;28;20030;-67
2023/09/20 04:48:31;;;;;;;6.60;2.30;;;;;;;15.07;100.00;100555.28;5028425;28;20448;-67
2023/09/20 04:50:57;;;;;;;5.15;2.10;;;;;;;15.07;100.00;100558.78;5029891;28;20063;-66
2023/09/20 04:53:23;;;;;;;8.60;2.47;;;;;;;15.02;100.00;100557.84;5031557;28;20075;-66
2023/09/20 04:55:48;;;;;;;4.45;2.38;;;;;;;14.98;100.00;100554.34;5048343;28;20583;-66
2023/09/20 04:58:13;;;;;;;3.35;2.03;;;;;;;14.95;100.00;100563.88;5049726;28;20052;-67
2023/09/20 05:00:41;;;;;;;10.20;2.50;;;;;;;14.96;100.00;100563.00;5048331;28;20477;-66
2023/09/20 05:03:07;;;;;;;5.15;2.40;;;;;;;14.95;100.00;100553.44;5048352;28;20060;-66
2023/09/20 05:05:32;;;;;;;6.55;2.65;;;;;;;14.96;100.00;100552.56;5049708;28;20056;-67
2023/09/20 05:07:57;;;;;;;4.38;2.00;;;;;;;14.96;100.00;100549.97;5047428;28;20084;-66
2023/09/20 05:10:23;;;;;;;5.57;2.40;;;;;;;14.95;100.00;100540.41;5048781;28;20025;-66
2023/09/20 05:12:48;;;;;;;4.68;1.77;;;;;;;14.95;100.00;100548.25;5045431;28;20063;-66
2023/09/20 05:15:15;;;;;;;4.57;2.17;;;;;;;14.93;100.00;100542.13;5042827;28;20465;-66
2023/09/20 05:17:41;;;;;;;11.70;2.55;;;;;;;14.91;100.00;100549.06;5042067;28;20369;-66
2023/09/20 05:20:07;;;;;;;6.93;2.38;;;;;;;14.92;100.00;100558.63;5025895;28;20347;-65
2023/09/20 05:22:33;;;;;;;4.22;2.50;;;;;;;14.92;100.00;100545.56;5013522;28;20497;-66
2023/09/20 05:24:59;;;;;;;8.88;2.88;;;;;;;14.92;100.00;100551.69;5013122;28;20156;-66
2023/09/20 05:27:24;;;;;;;6.38;2.53;;;;;;;14.93;100.00;100553.41;5018181;28;20026;-66
2023/09/20 05:29:50;;;;;;;7.70;2.38;;;;;;;14.96;100.00;100555.19;5018039;28;20521;-66
2023/09/20 05:32:16;;;;;;;7.05;2.00;;;;;;;14.98;100.00;100556.09;5019292;28;20044;-66
2023/09/20 05:34:42;;;;;;;6.57;2.20;;;;;;;14.97;100.00;100538.66;5025369;28;20017;-66
2023/09/20 05:37:08;;;;;;;4.60;2.10;;;;;;;14.98;100.00;100540.44;5025461;28;20030;-65
2023/09/20 05:39:34;;;;;;;4.47;2.60;;;;;;;14.98;100.00;100540.44;5019282;28;20025;-67
2023/09/20 05:42:01;;;;;;;5.50;2.30;;;;;;;14.98;100.00;100537.81;5025278;28;20028;-67
2023/09/20 05:44:30;;;;;;;5.45;2.30;;;;;;;15.00;100.00;100534.34;5024860;28;20105;-66
2023/09/20 05:46:55;;;;;;;7.00;2.20;;;;;;;14.99;100.00;100531.72;5024721;28;20053;-66
2023/09/20 05:49:22;;;;;;;4.75;2.22;;;;;;;14.98;100.00;100530.00;5015043;28;20068;-66
2023/09/20 05:51:50;;;;;;;4.07;2.05;;;;;;;15.01;100.00;100540.44;5048734;28;20029;-67
2023/09/20 05:54:19;;;;;;;5.68;2.00;;;;;;;15.03;100.00;100538.72;5034948;28;20026;-68
2023/09/20 05:56:45;;;;;;;5.25;2.30;;;;;;;15.04;100.00;100537.84;5037544;28;20440;-67
2023/09/20 05:59:11;;;;;;;6.57;1.92;;;;;;;15.07;100.00;100535.28;5047523;28;20025;-66
2023/09/20 06:01:39;;;;;;;5.32;2.15;;;;;;;15.09;100.00;100533.53;5047336;28;20090;-67
2023/09/20 06:04:07;;;;;;;5.70;2.47;;;;;;;15.12;100.00;100538.81;5046415;28;20778;-67
2023/09/20 06:06:33;;;;;;;6.78;2.63;;;;;;;15.17;100.00;100545.78;5046183;28;20492;-67
2023/09/20 06:08:58;;;;;;;4.97;1.90;;;;;;;15.19;100.00;100544.06;5045487;28;20078;-67
2023/09/20 06:11:25;;;;;;;4.68;2.20;;;;;;;15.21;100.00;100542.34;5045674;28;20021;-67
2023/09/20 06:13:51;;;;;;;8.45;3.13;;;;;;;15.24;100.00;100535.41;5045530;28;20035;-67
2023/09/20 06:16:16;;;;;;;8.43;2.47;;;;;;;15.25;100.00;100529.31;5047545;28;20012;-67
2023/09/20 06:18:42;;;;;;;6.57;2.33;;;;;;;15.28;100.00;100533.72;5047542;28;20479;-67
2023/09/20 06:21:08;;;;;;;6.72;2.55;;;;;;;15.29;100.00;100531.97;5048320;28;20020;-66
2023/09/20 06:23:34;;;;;;;5.00;2.78;;;;;;;15.33;100.00;100526.78;5047416;28;20023;-67
2023/09/20 06:26:06;;;;;;;6.28;2.40;;;;;;;15.35;100.00;100525.06;5048319;28;20048;-67
2023/09/20 06:28:32;;;;;;;5.82;2.40;;;;;;;15.37;100.00;100527.69;5047430;28;20591;-67
2023/09/20 06:30:58;;;;;;;3.95;2.38;;;;;;;15.40;100.00;100535.53;5047756;28;20029;-67
2023/09/20 06:33:23;;;;;;;5.70;2.55;;;;;;;15.48;100.00;100535.59;5044999;28;20031;-67
2023/09/20 06:35:50;;;;;;;3.67;2.05;;;;;;;15.60;100.00;100540.88;5028378;28;20053;-67
2023/09/20 06:38:15;;;;;;;5.20;2.33;;;;;;;15.69;100.00;100541.81;5028175;28;20142;-67
2023/09/20 06:40:40;;;;;;;4.93;1.98;;;;;;;15.78;100.00;100541.88;5045041;28;20263;-66
2023/09/20 06:43:09;;;;;;;3.10;2.00;;;;;;;15.83;100.00;100537.53;5047680;28;20028;-66
2023/09/20 06:45:35;;;;;;;4.45;2.10;;;;;;;15.94;100.00;100534.97;5046935;28;20067;-67
2023/09/20 06:48:02;;;;;;;3.00;1.70;;;;;;;16.15;100.00;100536.00;5047875;28;20033;-68
2023/09/20 06:50:28;;;;;;;5.07;2.03;;;;;;;16.38;100.00;100540.41;5046385;28;20037;-67
2023/09/20 06:52:54;;;;;;;6.35;2.08;;;;;;;16.54;100.00;100535.22;5047794;28;20055;-67
2023/09/20 06:55:20;;;;;;;5.80;2.08;;;;;;;16.68;100.00;100537.84;5046202;28;20034;-66
2023/09/20 06:57:47;;;;;;;4.60;1.80;;;;;;;16.72;100.00;100539.63;5047286;28;20095;-67
2023/09/20 07:00:24;;;;;;;4.18;2.28;;;;;;;16.73;100.00;100546.59;5046182;28;20381;-67
2023/09/20 07:02:51;;;;;;;6.80;2.33;;;;;;;16.75;100.00;100544.84;5046695;28;20465;-66
2023/09/20 07:05:17;;;;;;;3.13;1.80;;;;;;;16.76;100.00;100546.63;5045561;28;20044;-66
2023/09/20 07:07:44;;;;;;;4.28;1.98;;;;;;;16.79;100.00;100541.38;5046603;28;20551;-68
2023/09/20 07:10:10;;;;;;;4.53;1.75;;;;;;;16.78;100.00;100534.38;5045538;28;20552;-67
2023/09/20 07:12:38;;;;;;;4.97;2.00;;;;;;;16.77;100.00;100537.00;5046225;28;20121;-68
2023/09/20 07:15:06;;;;;;;4.40;2.03;;;;;;;16.67;100.00;100536.13;5045859;28;20376;-67
2023/09/20 07:17:31;;;;;;;2.45;2.13;;;;;;;16.68;100.00;100536.13;5045021;28;20041;-67
2023/09/20 07:19:57;;;;;;;4.90;2.10;;;;;;;16.71;100.00;100530.03;5045055;28;20468;-67
2023/09/20 07:22:23;;;;;;;3.42;1.70;;;;;;;16.78;100.00;100534.38;5043531;28;20082;-67
2023/09/20 07:24:54;;;;;;;3.25;1.80;;;;;;;16.90;100.00;100528.31;5045933;28;20017;-67
2023/09/20 07:27:19;;;;;;;;;;;;;;;17.20;100.00;100532.72;5044376;28;20086;-65
2023/09/20 07:29:45;;;;;;;4.90;1.92;;;;;;;17.40;100.00;100524.81;5046023;28;19913;-68
2023/09/20 07:32:12;;;;;;;4.47;1.90;;;;;;;17.80;100.00;100523.88;5043713;28;20094;-67
2023/09/20 07:34:37;;;;;;;4.65;1.60;;;;;;;18.02;100.00;100531.66;5037636;28;20018;-67
2023/09/20 07:37:02;;;;;;;2.75;1.50;;;;;;;18.18;100.00;100536.84;5039076;28;20079;-68
2023/09/20 07:39:28;;;;;;;5.07;1.70;;;;;;;18.22;100.00;100533.34;5025321;28;20052;-67
2023/09/20 07:41:58;;;;;;;4.97;2.00;;;;;;;18.47;100.00;100531.44;5031835;28;20037;-66
2023/09/20 07:44:25;;;;;;;6.22;1.80;;;;;;;18.66;100.00;100538.34;5041885;28;20369;-67
2023/09/20 07:46:54;;;;;;;3.97;2.05;;;;;;;18.76;100.00;100533.91;5030035;28;20140;-66
2023/09/20 07:49:20;;;;;;;2.65;1.42;;;;;;;18.76;100.00;100539.16;5033863;28;20421;-68
2023/09/20 07:51:46;;;;;;;3.63;1.45;;;;;;;18.72;100.00;100540.94;5036919;28;20025;-68
2023/09/20 07:54:14;;;;;;;2.67;1.67;;;;;;;18.48;100.00;100540.19;5034292;28;20041;-66
2023/09/20 07:56:41;;;;;;;3.22;1.70;;;;;;;18.48;100.00;100548.06;5035977;28;20390;-67
2023/09/20 07:59:06;;;;;;;4.00;1.77;;;;;;;18.44;100.00;100535.88;5034955;28;20515;-67
2023/09/20 08:01:32;;;;;;;4.65;2.20;;;;;;;18.18;100.00;100534.25;5034989;28;20054;-67
2023/09/20 08:03:58;;;;;;;5.00;1.92;;;;;;;18.22;100.00;100530.72;5034316;28;20021;-68
2023/09/20 08:06:29;;;;;;;5.40;2.03;;;;;;;18.15;100.00;100529.03;5034495;28;20111;-67
2023/09/20 08:08:58;;;;;;;4.63;2.00;;;;;;;18.39;100.00;100533.25;5034527;28;20033;-68
2023/09/20 08:11:23;;;;;;;9.77;2.22;;;;;;;18.62;100.00;100534.88;5032942;28;20592;-67
2023/09/20 08:13:50;;;;;;;4.72;1.80;;;;;;;19.00;100.00;100543.34;5034456;28;20059;-67
2023/09/20 08:16:16;;;;;;;4.03;2.08;;;;;;;19.17;100.00;100535.38;5033026;28;20381;-68
2023/09/20 08:21:25;;;;;;;4.15;2.33;;;;;;;19.11;100.00;100548.50;5023384;28;20515;-68
2023/09/20 08:59:49;;;;;;;4.68;1.98;;;;;;;19.87;100.00;100557.47;5049592;28;20450;-68
2023/09/20 09:02:15;;;;;;;6.13;2.03;;;;;;;19.86;100.00;100560.97;5027011;28;20055;-68
2023/09/20 09:04:45;;;;;;;7.75;2.53;;;;;;;19.63;100.00;100554.19;5049271;28;20052;-67
2023/09/20 09:07:12;;;;;;;5.05;2.10;;;;;;;19.66;100.00;100559.41;5049721;28;20045;-67
2023/09/20 09:09:38;;;;;;;5.68;2.33;;;;;;;19.63;100.00;100556.81;5047300;28;20378;-68
2023/09/20 09:12:04;;;;;;;2.67;1.88;;;;;;;19.70;100.00;100548.91;5039002;28;20491;-67
2023/09/20 09:14:30;;;;;;;6.15;2.45;;;;;;;19.55;100.00;100543.75;5048638;28;20021;-68
2023/09/20 09:17:03;;;;;;;5.35;2.53;;;;;;;19.49;100.00;100546.47;5049466;28;20032;-68
2023/09/20 09:19:28;;;;;;;5.57;2.13;;;;;;;19.47;100.00;100552.59;5048357;28;20028;-68
2023/09/20 09:21:54;;;;;;;3.47;2.50;;;;;;;19.49;100.00;100550.84;5048652;28;20502;-68
2023/09/20 09:24:21;;;;;;;3.55;2.00;;;;;;;19.46;100.00;100540.38;5047628;28;20035;-67
2023/09/20 09:26:46;;;;;;;5.43;2.20;;;;;;;19.28;100.00;100545.78;5048775;28;20021;-67
2023/09/20 09:29:21;;;;;;;3.97;1.75;;;;;;;19.22;100.00;100537.06;5047142;28;20029;-67
2023/09/20 09:31:50;;;;;;;4.25;2.00;;;;;;;19.24;100.00;100537.94;5048816;28;20104;-67
2023/09/20 09:34:19;;;;;;;2.33;1.50;;;;;;;19.25;100.00;100547.56;5046446;28;20260;-66
2023/09/20 09:36:45;;;;;;;4.03;1.70;;;;;;;19.16;100.00;100540.63;5047954;28;20128;-67
2023/09/20 09:39:14;;;;;;;5.75;1.90;;;;;;;19.27;100.00;100543.16;5034508;28;20120;-68
2023/09/20 09:41:44;;;;;;;4.63;1.77;;;;;;;19.35;100.00;100538.72;5035972;28;20385;-68
2023/09/20 09:44:10;;;;;;;5.15;1.88;;;;;;;19.28;100.00;100540.53;5029077;28;20056;-68
2023/09/20 09:46:38;;;;;;;4.43;2.40;;;;;;;19.30;100.00;100540.53;5042253;28;20025;-67
2023/09/20 09:49:12;;;;;;;4.60;1.80;;;;;;;19.30;100.00;100530.88;5048584;28;20063;-68
2023/09/20 09:51:45;;;;;;;2.75;1.70;;;;;;;19.41;100.00;100537.81;5047652;28;20024;-67
2023/09/20 09:54:15;;;;;;;3.45;1.52;;;;;;;19.40;100.00;100531.66;5037556;28;20111;-68
2023/09/20 09:56:41;;;;;;;4.00;1.38;;;;;;;19.43;100.00;100526.38;5047932;28;20396;-67
2023/09/20 09:59:07;;;;;;;4.13;1.83;;;;;;;19.38;100.00;100522.91;5049027;28;20050;-68
2023/09/20 10:01:37;;;;;;;4.15;1.50;;;;;;;19.55;100.00;100524.53;5035458;28;21560;-68
2023/09/20 10:04:13;;;;;;;3.35;1.50;;;;;;;19.63;100.00;100517.41;5048759;28;20082;-67
2023/09/20 10:06:50;;;;;;;4.95;2.10;;;;;;;19.61;100.00;100513.94;5047082;28;20047;-68
2023/09/20 10:09:21;;;;;;;4.47;1.75;;;;;;;19.70;100.00;100510.31;5048567;28;20381;-68
2023/09/20 10:11:47;;;;;;;4.22;1.27;;;;;;;19.65;100.00;100520.91;5048058;28;20029;-67
2023/09/20 10:14:14;;;;;;;4.32;1.77;;;;;;;19.74;100.00;100505.91;5047534;28;20020;-67
2023/09/20 10:16:42;;;;;;;2.80;1.40;;;;;;;19.82;100.00;100504.06;5047584;28;20287;-67
2023/09/20 10:19:12;;;;;;;4.38;2.25;;;;;;;19.94;100.00;100504.78;5048033;28;20025;-67
2023/09/20 10:21:39;;;;;;;3.97;1.52;;;;;;;20.02;100.00;100513.47;5047719;28;20025;-67
2023/09/20 10:24:07;;;;;;;2.55;1.52;;;;;;;20.10;100.00;100511.63;5047203;28;20380;-68
2023/09/20 10:26:40;;;;;;;6.15;1.92;;;;;;;20.23;100.00;100506.22;5047927;28;20444;-68
2023/09/20 10:29:25;;;;;;;4.28;1.40;;;;;;;20.45;100.00;100505.91;5047021;28;20644;-68
2023/09/20 10:31:53;;;;;;;3.25;1.30;;;;;;;20.62;100.00;100493.38;5046927;28;20441;-68
2023/09/20 10:34:20;;;;;;;3.17;1.40;;;;;;;20.68;100.00;100504.69;5046863;28;20029;-67
2023/09/20 10:36:51;;;;;;;3.30;0.98;;;;;;;20.68;100.00;100497.66;5046100;28;20499;-67
2023/09/20 10:39:17;;;;;;;3.22;1.40;;;;;;;20.69;100.00;100498.50;5034137;28;20049;-68
2023/09/20 10:41:43;;;;;;;3.28;1.30;;;;;;;20.66;100.00;100488.03;5047118;28;20067;-67
2023/09/20 10:44:09;;;;;;;4.05;1.42;;;;;;;20.61;100.00;100489.00;5035761;28;20033;-68
2023/09/20 10:46:37;;;;;;;3.13;1.70;;;;;;;20.70;100.00;100489.75;5030204;28;20056;-68
2023/09/20 10:49:06;;;;;;;1.95;1.05;;;;;;;20.73;100.00;100481.78;5032502;28;20063;-67
2023/09/20 10:51:42;;;;;;;1.38;1.02;;;;;;;20.67;100.00;100474.00;5040546;28;20472;-69
2023/09/20 10:54:20;;;;;;;4.30;1.23;;;;;;;20.71;100.00;100480.94;5028365;28;20437;-68
2023/09/20 10:56:54;;;;;;;4.90;1.50;;;;;;;20.73;100.00;100479.16;5045013;28;20025;-68
2023/09/20 10:59:27;;;;;;;3.08;1.25;;;;;;;20.71;100.00;100475.69;5047146;28;20120;-68
2023/09/20 11:01:53;;;;;;;2.60;1.00;;;;;;;20.67;100.00;100484.53;5047631;28;20365;-67
2023/09/20 11:04:19;;;;;;;3.90;1.00;;;;;;;20.60;100.00;100474.09;5047503;28;20555;-68
2023/09/20 11:06:47;;;;;;;1.63;1.20;;;;;;;20.62;100.00;100469.69;5046203;28;20090;-67
2023/09/20 11:09:14;;;;;;;1.70;0.90;;;;;;;20.66;100.00;100472.25;5046801;28;20477;-68
2023/09/20 11:11:39;;;;;;;3.17;1.25;;;;;;;20.59;100.00;100467.09;5046697;28;20677;-68
2023/09/20 11:14:06;;;;;;;2.00;1.17;;;;;;;20.45;100.00;100461.19;5035757;28;20032;-68
2023/09/20 11:16:31;;;;;;;1.95;0.90;;;;;;;20.52;100.00;100470.72;5042421;28;20028;-68
2023/09/20 11:18:56;;;;;;;3.05;0.98;;;;;;;20.38;100.00;100463.91;5046050;28;20489;-68
2023/09/20 11:21:24;;;;;;;4.93;1.38;;;;;;;20.44;100.00;100457.66;5043813;28;20389;-68
2023/09/20 11:23:49;;;;;;;4.20;1.30;;;;;;;20.51;100.00;100464.59;5045767;28;20619;-68
2023/09/20 11:26:26;;;;;;;3.92;1.08;;;;;;;20.62;100.00;100461.78;5042272;28;20241;-68
2023/09/20 11:28:52;;;;;;;2.45;1.00;;;;;;;20.70;100.00;100471.31;5044732;28;20028;-68
2023/09/20 11:31:28;;;;;;;2.45;0.80;;;;;;;20.63;100.00;100468.78;5045049;28;20017;-68
2023/09/20 11:34:03;;;;;;;4.15;1.33;;;;;;;20.63;100.00;100467.94;5044999;28;20036;-68
2023/09/20 11:36:29;;;;;;;1.73;1.02;;;;;;;20.69;100.00;100466.94;5046228;28;20064;-68
2023/09/20 11:38:55;;;;;;;4.53;0.95;;;;;;;20.73;100.00;100468.63;5033630;28;20040;-68
2023/09/20 11:41:24;;;;;;;2.55;1.10;;;;;;;20.57;100.00;100468.88;5037707;28;20473;-67
2023/09/20 11:43:56;;;;;;;4.72;1.50;;;;;;;20.45;100.00;100463.81;5027487;28;20378;-68
2023/09/20 11:46:21;;;;;;;2.20;1.20;;;;;;;20.44;100.00;100469.94;5027453;28;20026;-68
2023/09/20 11:48:49;;;;;;;2.40;0.85;;;;;;;20.28;100.00;100462.28;5027097;28;20029;-68
2023/09/20 11:51:14;;;;;;;2.08;0.90;;;;;;;20.20;100.00;100464.19;5028353;28;20033;-67
2023/09/20 11:53:42;;;;;;;4.20;1.70;;;;;;;20.23;100.00;100466.75;5028395;28;20466;-68
2023/09/20 11:56:07;;;;;;;4.25;1.48;;;;;;;20.18;100.00;100453.69;5027959;28;20072;-68